Chesterfield, Connecticut
Current Conditions -  °F | °C
As of 2:56 AM on Sunday 26 Oct 2014 (Local Time) from KGON Reporting Station
Overcast Overcast  
Wind Chill: 58°   Ceiling: 7500
Heat Index: 58°   Visibility: 10mi
Dew Point: 47°   Wind: 7mph
Humidity: 67%   Direction: 310°NW
Pressure: 29.51"   Gusts: NA
Location:  41.4669°N, 72.1896°W
Report Text: KGON 260656Z AUTO 31006KT 10SM BKN075 OVC085 14/08 A2951 RMK AO2 SLP991 T01440083
Loading
Personal Weather Stations






























Interactive Weather Map
Tropical Storm Tracking
New forecast layout! Learn more

10-Day Weather Forecast

Advertisements
Track Severe Weather on mobile